Terminal Aerodrome Forecast
Issued by NWS Burlington, VT

Home | Current Version | Previous Version | Text Only | Print | Product List | Glossary On
Versions: 1 2 3 4 5 6 7 8 9 10 11 12 13 14 15 16 17 18 19 20
000
FTUS41 KBTV 280527
TAFBTV
TAF
KBTV 280527Z 2806/2906 35010KT P6SM VCSH SCT012 OVC025
      TEMPO 2806/2810 5SM -SHSN OVC012
     FM281200 35010G18KT P6SM OVC050
     FM281800 34010G20KT P6SM BKN120
     FM282300 34005KT P6SM BKN150=

USA.gov is the U.S. government's official web portal to all federal, state and local government web resources and services.